Time;durP1;ratioP1;P1;durP2;ratioP2;P2;SDS_P1;SDS_P2;PMS_P1;PMS_P2;Temp;Humidity;BMP_temperature;BMP_pressure;BME280_temperature;BME280_humidity;BME280_pressure;Samples;Min_cycle;Max_cycle;Signal;HPM_P1;HPM_P2
2021/06/06 00:01:40;;;;;;;9.10;8.40;;;20.10;1.00;;;;;;5004500;28;20554;-80
2021/06/06 00:04:07;;;;;;;8.30;7.60;;;20.10;1.00;;;;;;5003886;28;20446;-80
2021/06/06 00:06:38;;;;;;;9.63;8.93;;;20.00;1.00;;;;;;4987722;28;20450;-80
2021/06/06 00:09:07;;;;;;;10.43;9.60;;;19.90;1.00;;;;;;4997066;28;20497;-81
2021/06/06 00:11:37;;;;;;;10.77;9.87;;;19.90;1.00;;;;;;5006071;28;20482;-79
2021/06/06 00:14:07;;;;;;;9.40;8.60;;;19.90;1.00;;;;;;5007642;28;20449;-81
2021/06/06 00:16:36;;;;;;;10.00;9.20;;;19.80;1.00;;;;;;5001901;28;20844;-79
2021/06/06 00:19:03;;;;;;;11.03;10.13;;;19.80;1.00;;;;;;4997722;28;20532;-80
2021/06/06 00:21:30;;;;;;;9.53;8.83;;;19.70;1.00;;;;;;4998841;28;21309;-79
2021/06/06 00:23:58;;;;;;;10.13;9.23;;;19.60;1.00;;;;;;4999291;28;20458;-82
2021/06/06 00:26:25;;;;;;;10.37;9.43;;;19.60;1.00;;;;;;5000647;28;20549;-80
2021/06/06 00:28:52;;;;;;;10.03;9.23;;;19.60;1.00;;;;;;5005026;28;20461;-81
2021/06/06 00:31:19;;;;;;;11.73;9.77;;;19.50;1.00;;;;;;5010567;28;20419;-81
2021/06/06 00:33:49;;;;;;;10.20;9.30;;;19.50;1.00;;;;;;5002845;28;20632;-80
2021/06/06 00:36:15;;;;;;;10.10;9.30;;;19.50;1.00;;;;;;5001722;28;21144;-79
2021/06/06 00:38:42;;;;;;;9.43;8.63;;;19.40;1.00;;;;;;5001138;28;20475;-79
2021/06/06 00:41:10;;;;;;;11.47;9.83;;;19.40;1.00;;;;;;5000013;28;20600;-81
2021/06/06 00:43:36;;;;;;;10.67;9.77;;;19.40;1.00;;;;;;4998736;28;20454;-80
2021/06/06 00:46:03;;;;;;;10.33;9.50;;;19.40;1.00;;;;;;4999429;28;20535;-80
2021/06/06 00:48:29;;;;;;;11.03;10.23;;;19.40;1.00;;;;;;4996325;28;20550;-80
2021/06/06 00:51:00;;;;;;;10.70;9.50;;;19.20;1.00;;;;;;5006257;28;20461;-80
2021/06/06 00:53:34;;;;;;;10.60;9.70;;;19.20;1.00;;;;;;5005671;28;20429;-80
2021/06/06 00:56:04;;;;;;;10.87;9.73;;;19.20;1.00;;;;;;5006990;28;20455;-78
2021/06/06 00:58:31;;;;;;;10.27;9.47;;;19.10;1.00;;;;;;5015702;28;20470;-79
2021/06/06 01:00:58;;;;;;;11.87;10.70;;;19.10;1.00;;;;;;5003445;28;20550;-80
2021/06/06 01:03:25;;;;;;;10.80;10.00;;;19.00;1.00;;;;;;4998424;28;20970;-80
2021/06/06 01:05:57;;;;;;;10.57;9.77;;;19.00;1.00;;;;;;4999759;28;20450;-80
2021/06/06 01:08:23;;;;;;;10.80;9.90;;;18.90;1.00;;;;;;4996514;28;20462;-80
2021/06/06 01:10:56;;;;;;;10.97;9.97;;;18.90;1.00;;;;;;5009403;28;20441;-79
2021/06/06 01:13:28;;;;;;;10.70;9.90;;;18.80;1.00;;;;;;5002164;28;20445;-79
2021/06/06 01:16:02;;;;;;;10.50;9.63;;;18.80;1.00;;;;;;4999619;28;20461;-80
2021/06/06 01:18:31;;;;;;;10.97;10.07;;;18.70;1.00;;;;;;5003015;28;20488;-79
2021/06/06 01:21:09;;;;;;;11.83;10.93;;;18.70;1.00;;;;;;5002727;28;20457;-80
2021/06/06 01:23:55;;;;;;;11.00;10.10;;;18.60;1.00;;;;;;4999996;28;20563;-80
2021/06/06 01:26:26;;;;;;;10.97;9.97;;;18.50;1.00;;;;;;4999050;28;20460;-80
2021/06/06 01:28:58;;;;;;;11.67;10.67;;;18.50;1.00;;;;;;5003838;28;20464;-80
2021/06/06 01:31:26;;;;;;;11.30;10.40;;;18.50;1.00;;;;;;5001764;28;20874;-81
2021/06/06 01:33:58;;;;;;;11.63;10.73;;;18.50;1.00;;;;;;5006636;28;20458;-80
2021/06/06 01:36:30;;;;;;;10.57;9.87;;;18.50;1.00;;;;;;4997365;28;20621;-80
2021/06/06 01:39:00;;;;;;;11.70;10.60;;;18.50;1.00;;;;;;5000118;28;20990;-80
2021/06/06 01:41:34;;;;;;;10.70;9.83;;;18.50;1.00;;;;;;4996172;28;20445;-79
2021/06/06 01:44:02;;;;;;;11.20;10.30;;;18.50;1.00;;;;;;4997389;28;20469;-79
2021/06/06 01:46:33;;;;;;;11.47;10.57;;;18.50;1.00;;;;;;4995658;28;20540;-81
2021/06/06 01:48:59;;;;;;;11.67;10.67;;;18.50;1.00;;;;;;5000150;28;20423;-80
2021/06/06 01:51:30;;;;;;;11.77;10.87;;;18.40;1.00;;;;;;5007540;28;20765;-80
2021/06/06 01:53:58;;;;;;;11.50;10.47;;;18.40;1.00;;;;;;5005214;28;20431;-80
2021/06/06 01:56:27;;;;;;;12.57;10.40;;;18.40;1.00;;;;;;5012652;28;20418;-80
2021/06/06 01:58:56;;;;;;;10.47;9.57;;;18.40;1.00;;;;;;5012875;28;20490;-80
2021/06/06 02:01:25;;;;;;;11.57;10.53;;;18.40;1.00;;;;;;5008868;28;20473;-79
2021/06/06 02:03:53;;;;;;;12.20;11.10;;;18.40;1.00;;;;;;5008174;28;20513;-80
2021/06/06 02:06:23;;;;;;;11.70;10.80;;;18.40;1.00;;;;;;5015465;28;20447;-80
2021/06/06 02:08:50;;;;;;;11.43;10.43;;;18.40;1.00;;;;;;5017221;28;20492;-80
2021/06/06 02:11:23;;;;;;;11.97;10.90;;;18.30;1.00;;;;;;5015824;28;20440;-81
2021/06/06 02:13:54;;;;;;;12.50;11.50;;;18.30;1.00;;;;;;5016341;28;20433;-79
2021/06/06 02:16:24;;;;;;;11.70;10.70;;;18.30;1.00;;;;;;5009956;28;20503;-78
2021/06/06 02:18:50;;;;;;;12.60;11.40;;;18.30;1.00;;;;;;4992690;28;21374;-78
2021/06/06 02:21:18;;;;;;;11.60;10.60;;;18.20;1.00;;;;;;5010576;28;20446;-79
2021/06/06 02:23:46;;;;;;;12.80;11.63;;;18.10;1.00;;;;;;5018295;28;20473;-80
2021/06/06 02:26:18;;;;;;;11.57;10.47;;;18.10;1.00;;;;;;5002783;28;20406;-79
2021/06/06 02:28:52;;;;;;;12.93;11.63;;;18.00;1.00;;;;;;5004042;28;20498;-80
2021/06/06 02:31:27;;;;;;;10.70;9.70;;;18.00;1.00;;;;;;4999731;28;20520;-80
2021/06/06 02:33:58;;;;;;;12.60;11.50;;;18.00;1.00;;;;;;5001170;28;20503;-78
2021/06/06 02:36:25;;;;;;;12.03;11.03;;;17.90;1.00;;;;;;4998911;28;20491;-80
2021/06/06 02:38:55;;;;;;;13.10;12.00;;;17.90;1.00;;;;;;4997584;28;20510;-80
2021/06/06 02:41:26;;;;;;;13.03;11.93;;;17.90;1.00;;;;;;4996003;28;20458;-80
2021/06/06 02:43:57;;;;;;;11.57;10.67;;;17.80;1.00;;;;;;4997264;28;20499;-80
2021/06/06 02:46:24;;;;;;;13.37;12.27;;;17.80;1.00;;;;;;5001552;28;20867;-80
2021/06/06 02:48:56;;;;;;;12.43;11.33;;;17.80;1.00;;;;;;5001690;28;20928;-80
2021/06/06 02:51:24;;;;;;;12.80;11.80;;;17.70;1.00;;;;;;4998298;28;20453;-80
2021/06/06 02:53:57;;;;;;;13.00;11.90;;;17.70;1.00;;;;;;4984313;28;20473;-80
2021/06/06 02:56:28;;;;;;;12.03;11.03;;;17.60;1.00;;;;;;5006080;28;20403;-80
2021/06/06 02:58:57;;;;;;;13.07;12.07;;;17.50;1.00;;;;;;5001376;28;21747;-81
2021/06/06 03:01:30;;;;;;;12.93;11.57;;;17.50;1.00;;;;;;4998375;28;21866;-80
2021/06/06 03:03:58;;;;;;;12.33;11.43;;;17.50;1.00;;;;;;4997671;28;20504;-80
2021/06/06 03:06:30;;;;;;;12.93;11.73;;;17.40;1.00;;;;;;4999914;28;20545;-80
2021/06/06 03:08:56;;;;;;;12.53;11.63;;;17.40;1.00;;;;;;5001710;28;21199;-81
2021/06/06 03:11:23;;;;;;;13.70;12.50;;;17.40;1.00;;;;;;4999491;28;20444;-80
2021/06/06 03:13:54;;;;;;;13.97;12.77;;;17.40;1.00;;;;;;5003326;28;20470;-80
2021/06/06 03:16:22;;;;;;;14.33;13.13;;;17.30;1.00;;;;;;5004611;28;20536;-79
2021/06/06 03:18:51;;;;;;;13.17;12.17;;;17.30;1.00;;;;;;5015502;28;20532;-80
2021/06/06 03:21:22;;;;;;;13.80;12.60;;;17.30;1.00;;;;;;5026191;28;20452;-81
2021/06/06 03:23:51;;;;;;;13.47;12.47;;;17.30;1.00;;;;;;5024129;28;20473;-80
2021/06/06 03:26:19;;;;;;;12.73;11.73;;;17.20;1.00;;;;;;5020008;28;20473;-79
2021/06/06 03:28:45;;;;;;;15.43;14.03;;;17.20;1.00;;;;;;5019081;28;21314;-80
2021/06/06 03:31:19;;;;;;;14.47;13.27;;;17.20;1.00;;;;;;5026932;28;20425;-80
2021/06/06 03:33:50;;;;;;;14.20;12.90;;;17.10;1.00;;;;;;5021877;28;20496;-81
2021/06/06 03:36:19;;;;;;;14.77;13.37;;;17.10;1.00;;;;;;5053776;22;20464;-77
2021/06/06 03:38:46;;;;;;;14.87;13.50;;;17.10;1.00;;;;;;5015081;28;20456;-77
2021/06/06 03:41:12;;;;;;;13.17;12.17;;;17.10;1.00;;;;;;5012604;28;20580;-75
2021/06/06 03:43:38;;;;;;;13.90;12.70;;;17.10;1.00;;;;;;5014680;28;20541;-76
2021/06/06 03:46:05;;;;;;;14.20;13.00;;;17.10;1.00;;;;;;5014323;28;20460;-77
2021/06/06 03:48:33;;;;;;;13.63;12.53;;;17.10;1.00;;;;;;5014751;28;21043;-76
2021/06/06 03:50:59;;;;;;;15.20;13.80;;;17.10;1.00;;;;;;5013987;28;20456;-76
2021/06/06 03:53:27;;;;;;;13.83;12.63;;;17.10;1.00;;;;;;5014712;28;21195;-76
2021/06/06 03:55:53;;;;;;;13.60;12.60;;;17.10;1.00;;;;;;4994265;28;20529;-77
2021/06/06 03:58:20;;;;;;;15.27;13.87;;;17.00;1.00;;;;;;5012193;28;20463;-77
2021/06/06 04:00:48;;;;;;;13.60;12.50;;;17.00;1.00;;;;;;5013998;28;21302;-77
2021/06/06 04:03:15;;;;;;;14.30;13.10;;;17.10;1.00;;;;;;5013352;28;21159;-77
2021/06/06 04:05:43;;;;;;;16.27;14.80;;;17.10;1.00;;;;;;5014517;28;20463;-78
2021/06/06 04:08:10;;;;;;;13.87;12.77;;;17.20;1.00;;;;;;5012023;28;20483;-78
2021/06/06 04:10:38;;;;;;;14.13;12.93;;;17.20;1.00;;;;;;5010863;28;20469;-76
2021/06/06 04:13:05;;;;;;;14.60;13.40;;;17.20;1.00;;;;;;5015028;28;20497;-78
2021/06/06 04:15:31;;;;;;;15.07;13.67;;;17.20;1.00;;;;;;5013463;28;20443;-77
2021/06/06 04:18:08;;;;;;;14.47;13.23;;;17.30;1.00;;;;;;5012911;28;21047;-78
2021/06/06 04:20:34;;;;;;;14.83;13.53;;;17.20;1.00;;;;;;5015010;28;20435;-77
2021/06/06 04:23:02;;;;;;;16.53;15.03;;;17.30;1.00;;;;;;5017636;28;20463;-76
2021/06/06 04:25:28;;;;;;;14.20;12.77;;;17.30;1.00;;;;;;5016990;28;21276;-77
2021/06/06 04:27:54;;;;;;;14.63;13.33;;;17.30;1.00;;;;;;5011952;28;20541;-77
2021/06/06 04:30:21;;;;;;;15.03;13.93;;;17.40;1.00;;;;;;5012856;28;20958;-77
2021/06/06 04:32:47;;;;;;;16.47;14.97;;;17.40;1.00;;;;;;5012747;28;21123;-77
2021/06/06 04:35:14;;;;;;;16.40;14.83;;;17.40;1.00;;;;;;5010210;28;20452;-76
2021/06/06 04:37:40;;;;;;;16.23;14.87;;;17.40;1.00;;;;;;5012443;28;20466;-76
2021/06/06 04:40:10;;;;;;;15.97;14.67;;;17.50;1.00;;;;;;5012464;28;20436;-77
2021/06/06 04:42:37;;;;;;;15.07;13.90;;;17.50;1.00;;;;;;5013112;28;20465;-78
2021/06/06 04:45:04;;;;;;;17.30;15.80;;;17.60;1.00;;;;;;5013134;28;20465;-77
2021/06/06 04:47:30;;;;;;;15.67;14.37;;;17.60;1.00;;;;;;4993447;28;21661;-76
2021/06/06 04:49:57;;;;;;;16.67;15.23;;;17.60;1.00;;;;;;5015252;28;21050;-78
2021/06/06 04:52:23;;;;;;;16.23;15.00;;;17.60;1.00;;;;;;5014129;28;20429;-76
2021/06/06 04:54:49;;;;;;;16.30;15.00;;;17.70;1.00;;;;;;5017719;28;20548;-77
2021/06/06 04:57:17;;;;;;;15.50;14.40;;;17.70;1.00;;;;;;5014842;28;20977;-78
2021/06/06 04:59:43;;;;;;;14.10;13.10;;;17.80;1.00;;;;;;5015480;28;20487;-77
2021/06/06 05:02:11;;;;;;;15.17;13.97;;;17.80;1.00;;;;;;5014182;28;20445;-77
2021/06/06 05:04:40;;;;;;;15.80;14.53;;;17.90;1.00;;;;;;5010821;28;20463;-77
2021/06/06 05:07:06;;;;;;;16.43;15.10;;;17.90;1.00;;;;;;5011933;28;20467;-78
2021/06/06 05:09:32;;;;;;;15.93;14.60;;;18.00;1.00;;;;;;5011103;28;21373;-80
2021/06/06 05:11:59;;;;;;;16.93;15.53;;;18.00;1.00;;;;;;4995779;28;20438;-81
2021/06/06 05:14:26;;;;;;;16.83;15.47;;;18.00;1.00;;;;;;5014542;28;20447;-80
2021/06/06 05:16:52;;;;;;;16.70;15.40;;;18.00;1.00;;;;;;5014841;28;20517;-80
2021/06/06 05:19:18;;;;;;;15.73;14.47;;;18.10;1.00;;;;;;5015742;28;20416;-81
2021/06/06 05:21:44;;;;;;;16.60;15.30;;;18.10;1.00;;;;;;4998358;28;20454;-81
2021/06/06 05:24:10;;;;;;;16.30;14.83;;;18.30;1.00;;;;;;5020757;28;20944;-79
2021/06/06 05:26:37;;;;;;;17.57;16.13;;;18.30;1.00;;;;;;5015700;28;20460;-80
2021/06/06 05:29:04;;;;;;;17.80;16.20;;;18.50;1.00;;;;;;5011503;28;20565;-81
2021/06/06 05:31:31;;;;;;;17.50;16.00;;;18.50;1.00;;;;;;5016118;28;20975;-81
2021/06/06 05:33:57;;;;;;;18.10;16.50;;;18.60;1.00;;;;;;5011206;28;20456;-80
2021/06/06 05:36:23;;;;;;;17.30;16.00;;;18.60;1.00;;;;;;5013493;28;20502;-80
2021/06/06 05:38:50;;;;;;;17.17;15.77;;;18.80;1.00;;;;;;5013114;28;20483;-80
2021/06/06 05:41:16;;;;;;;17.30;16.00;;;18.90;1.00;;;;;;5013009;28;20658;-79
2021/06/06 05:43:42;;;;;;;17.03;15.63;;;19.00;1.00;;;;;;5011099;28;20468;-80
2021/06/06 05:46:13;;;;;;;17.30;15.90;;;19.10;1.00;;;;;;5011954;28;20468;-80
2021/06/06 05:48:40;;;;;;;18.03;16.60;;;19.20;1.00;;;;;;5012633;28;20456;-81
2021/06/06 05:51:06;;;;;;;17.63;16.27;;;19.40;1.00;;;;;;5014432;28;20469;-79
2021/06/06 05:53:35;;;;;;;18.53;17.13;;;19.50;1.00;;;;;;4997341;28;21116;-79
2021/06/06 05:56:01;;;;;;;16.60;15.30;;;19.50;1.00;;;;;;5017224;28;20619;-80
2021/06/06 05:58:27;;;;;;;17.53;16.27;;;19.60;1.00;;;;;;5018931;28;20544;-82
2021/06/06 06:00:53;;;;;;;17.57;16.27;;;19.70;1.00;;;;;;5017629;28;20453;-81
2021/06/06 06:03:21;;;;;;;18.33;16.83;;;19.80;1.00;;;;;;5016296;28;21162;-82
2021/06/06 06:05:48;;;;;;;17.43;15.97;;;20.00;1.00;;;;;;5018069;28;20484;-80
2021/06/06 06:08:20;;;;;;;17.57;16.27;;;20.10;1.00;;;;;;5016666;28;20475;-80
2021/06/06 06:10:48;;;;;;;17.03;15.83;;;20.20;1.00;;;;;;5016118;28;21467;-80
2021/06/06 06:13:15;;;;;;;17.33;15.93;;;20.30;1.00;;;;;;5016912;28;20460;-81
2021/06/06 06:15:42;;;;;;;18.03;16.43;;;20.40;1.00;;;;;;5015991;28;20469;-80
2021/06/06 06:18:09;;;;;;;17.60;16.10;;;20.60;1.00;;;;;;5018216;28;20515;-80
2021/06/06 06:20:35;;;;;;;15.80;14.70;;;20.70;1.00;;;;;;5025995;28;20424;-81
2021/06/06 06:23:03;;;;;;;17.20;15.80;;;20.70;1.00;;;;;;5019854;28;20457;-79
2021/06/06 06:25:29;;;;;;;16.43;15.23;;;20.80;1.00;;;;;;5032503;28;20552;-81
2021/06/06 06:27:55;;;;;;;16.97;15.30;;;20.90;1.00;;;;;;5018708;28;20468;-81
2021/06/06 06:30:25;;;;;;;16.77;15.47;;;21.00;1.00;;;;;;5019926;28;20453;-80
2021/06/06 06:32:51;;;;;;;17.73;16.40;;;21.10;1.00;;;;;;5016517;28;20471;-80
2021/06/06 06:35:19;;;;;;;16.67;15.37;;;21.30;1.00;;;;;;5011253;28;20513;-81
2021/06/06 06:37:46;;;;;;;16.70;15.40;;;21.50;1.00;;;;;;5015959;28;20430;-81
2021/06/06 06:40:15;;;;;;;17.47;16.17;;;21.60;1.00;;;;;;5012813;28;20433;-81
2021/06/06 06:42:43;;;;;;;17.33;15.83;;;21.70;1.00;;;;;;5011875;28;20602;-81
2021/06/06 06:45:11;;;;;;;17.70;16.20;;;21.80;1.00;;;;;;5011295;28;20850;-81
2021/06/06 06:47:38;;;;;;;16.60;15.40;;;22.00;1.00;;;;;;5011937;28;20444;-81
2021/06/06 06:50:05;;;;;;;15.93;14.83;;;22.10;1.00;;;;;;5009260;28;20462;-82
2021/06/06 06:52:36;;;;;;;15.30;14.20;;;22.20;1.00;;;;;;5010998;28;20462;-81
2021/06/06 06:55:04;;;;;;;16.83;15.53;;;22.30;1.00;;;;;;5012974;28;21074;-80
2021/06/06 06:57:31;;;;;;;16.33;15.13;;;22.40;1.00;;;;;;5009570;28;21274;-82
2021/06/06 06:59:57;;;;;;;17.13;15.90;;;22.50;1.00;;;;;;5010193;28;20520;-79
2021/06/06 07:02:23;;;;;;;14.90;13.90;;;22.70;1.00;;;;;;5008109;28;20446;-80
2021/06/06 07:04:50;;;;;;;15.77;14.57;;;22.80;1.00;;;;;;5007818;28;21050;-81
2021/06/06 07:07:17;;;;;;;15.17;13.87;;;22.90;1.00;;;;;;5013024;28;20534;-81
2021/06/06 07:09:43;;;;;;;15.77;14.27;;;23.10;1.00;;;;;;5009125;28;20575;-80
2021/06/06 07:12:09;;;;;;;15.37;14.30;;;23.30;1.00;;;;;;5011771;28;20447;-78
2021/06/06 07:14:37;;;;;;;15.23;14.27;;;23.40;1.00;;;;;;5006645;28;20461;-76
2021/06/06 07:17:04;;;;;;;15.60;14.30;;;23.50;1.00;;;;;;5007660;28;20465;-79
2021/06/06 07:19:30;;;;;;;14.63;13.60;;;23.60;1.00;;;;;;5010231;28;20527;-78
2021/06/06 07:21:57;;;;;;;14.10;13.03;;;23.70;1.00;;;;;;5013834;28;20550;-78
2021/06/06 07:24:23;;;;;;;13.77;12.87;;;23.80;1.00;;;;;;5013107;28;20465;-79
2021/06/06 07:26:50;;;;;;;13.93;12.93;;;24.00;1.00;;;;;;5009705;28;20473;-80
2021/06/06 07:29:19;;;;;;;15.47;14.17;;;24.20;1.00;;;;;;5017796;28;20540;-80
2021/06/06 07:31:49;;;;;;;14.47;13.30;;;24.30;1.00;;;;;;5012559;28;20459;-80
2021/06/06 07:34:16;;;;;;;13.47;12.50;;;24.50;1.00;;;;;;5018212;28;20515;-79
2021/06/06 07:36:44;;;;;;;13.40;12.40;;;24.70;1.00;;;;;;5013430;28;20447;-80
2021/06/06 07:39:11;;;;;;;15.87;14.63;;;24.90;1.00;;;;;;5019372;28;22669;-79
2021/06/06 07:41:37;;;;;;;14.03;13.03;;;25.10;1.00;;;;;;5017248;28;20572;-80
2021/06/06 07:44:04;;;;;;;13.60;12.70;;;25.00;1.00;;;;;;5018259;28;20424;-79
2021/06/06 07:46:30;;;;;;;13.77;12.80;;;25.10;1.00;;;;;;5020792;28;20421;-79
2021/06/06 07:48:57;;;;;;;14.43;13.33;;;25.20;1.00;;;;;;5022766;28;21169;-79
2021/06/06 07:51:24;;;;;;;12.30;11.33;;;25.30;1.00;;;;;;5004836;28;20548;-77
2021/06/06 07:53:51;;;;;;;12.67;11.77;;;25.40;1.00;;;;;;5015705;28;21838;-80
2021/06/06 07:56:17;;;;;;;13.40;12.50;;;25.30;1.00;;;;;;5014221;28;20468;-80
2021/06/06 07:58:44;;;;;;;13.23;12.33;;;25.50;1.00;;;;;;5016715;28;20448;-80
2021/06/06 08:01:10;;;;;;;12.40;11.60;;;25.50;1.00;;;;;;5026079;28;20416;-78
2021/06/06 08:03:37;;;;;;;12.23;11.33;;;25.50;1.00;;;;;;5027175;28;20456;-79
2021/06/06 08:06:10;;;;;;;13.07;12.17;;;25.60;1.00;;;;;;5023348;28;20963;-82
2021/06/06 08:08:37;;;;;;;12.67;11.57;;;25.70;1.00;;;;;;5013782;28;22091;-84
2021/06/06 08:11:05;;;;;;;10.80;10.07;;;25.80;1.00;;;;;;5032981;28;20500;-84
2021/06/06 08:13:31;;;;;;;10.43;9.83;;;25.90;1.00;;;;;;5017366;28;20458;-84
2021/06/06 08:15:59;;;;;;;11.17;10.37;;;26.00;1.00;;;;;;5028922;28;20507;-84
2021/06/06 08:18:29;;;;;;;10.40;9.60;;;26.10;1.00;;;;;;5021102;28;20989;-84
2021/06/06 08:20:59;;;;;;;11.87;10.90;;;26.00;1.00;;;;;;5020513;28;20527;-84
2021/06/06 08:23:27;;;;;;;10.60;9.90;;;26.20;1.00;;;;;;5028412;28;20464;-84
2021/06/06 08:25:56;;;;;;;10.57;9.87;;;26.30;1.00;;;;;;5029150;28;20460;-84
2021/06/06 08:28:22;;;;;;;10.63;9.90;;;26.40;1.00;;;;;;5025987;28;20464;-84
2021/06/06 08:30:52;;;;;;;10.40;9.60;;;26.50;1.00;;;;;;5023824;28;20555;-84
2021/06/06 08:33:19;;;;;;;11.50;10.60;;;26.60;1.00;;;;;;5030764;28;20579;-83
2021/06/06 08:35:45;;;;;;;11.00;10.30;;;26.60;1.00;;;;;;5030340;28;20475;-84
2021/06/06 08:38:12;;;;;;;11.40;10.70;;;26.60;1.00;;;;;;5020640;28;20442;-85
2021/06/06 08:40:47;;;;;;;10.80;10.10;;;26.70;1.00;;;;;;5000419;28;20446;-85
2021/06/06 08:43:16;;;;;;;7.53;6.93;;;26.90;1.00;;;;;;5018866;28;20605;-85
2021/06/06 08:45:49;;;;;;;6.53;6.10;;;26.90;1.00;;;;;;5018474;28;20524;-84
2021/06/06 08:48:17;;;;;;;8.17;7.43;;;26.90;1.00;;;;;;5025286;28;20532;-84
2021/06/06 08:50:47;;;;;;;9.10;8.50;;;27.10;1.00;;;;;;5021824;28;20451;-84
2021/06/06 08:53:21;;;;;;;9.00;8.40;;;27.40;1.00;;;;;;5026714;28;20488;-84
2021/06/06 08:56:05;;;;;;;8.83;8.23;;;27.70;1.00;;;;;;5002704;28;20482;-84
2021/06/06 08:58:40;;;;;;;8.77;8.17;;;27.80;1.00;;;;;;5024878;28;20975;-84
2021/06/06 09:01:15;;;;;;;9.93;9.03;;;27.90;1.00;;;;;;5020296;28;20432;-82
2021/06/06 09:03:45;;;;;;;8.20;7.50;;;28.10;1.00;;;;;;5018237;28;20433;-86
2021/06/06 09:06:17;;;;;;;6.90;6.40;;;28.20;1.00;;;;;;5019712;28;20579;-86
2021/06/06 09:08:44;;;;;;;5.40;5.10;;;28.20;1.00;;;;;;5019593;28;20463;-86
2021/06/06 09:11:15;;;;;;;4.87;4.50;;;28.10;1.00;;;;;;5017069;28;20493;-86
2021/06/06 09:13:41;;;;;;;6.10;5.60;;;28.20;1.00;;;;;;5015037;28;20982;-86
2021/06/06 09:16:21;;;;;;;6.73;6.13;;;28.20;1.00;;;;;;5018420;28;20510;-85
2021/06/06 09:18:59;;;;;;;6.50;6.00;;;28.30;1.00;;;;;;5032183;28;20466;-85
2021/06/06 09:21:25;;;;;;;6.90;6.30;;;28.10;1.00;;;;;;5021842;28;20564;-86
2021/06/06 09:24:05;;;;;;;6.77;6.17;;;28.00;1.00;;;;;;5025697;28;20578;-85
2021/06/06 09:26:33;;;;;;;8.33;6.43;;;28.10;1.00;;;;;;5027069;28;20430;-84
2021/06/06 09:29:09;;;;;;;6.70;6.20;;;28.20;1.00;;;;;;5009068;28;20483;-78
2021/06/06 09:31:37;;;;;;;6.97;6.37;;;28.40;1.00;;;;;;5015819;28;20504;-79
2021/06/06 09:34:06;;;;;;;7.43;6.83;;;28.80;1.00;;;;;;5016710;28;21018;-79
2021/06/06 09:36:38;;;;;;;6.70;6.30;;;29.30;1.00;;;;;;5013001;28;20552;-80
2021/06/06 09:39:18;;;;;;;6.03;5.53;;;30.30;1.00;;;;;;5015653;28;20471;-81
2021/06/06 09:41:53;;;;;;;5.70;5.30;;;31.80;1.00;;;;;;5042944;22;20571;-76
2021/06/06 09:44:24;;;;;;;5.67;5.27;;;33.20;1.00;;;;;;5019353;28;20601;-76
2021/06/06 09:46:53;;;;;;;5.83;5.30;;;34.40;1.00;;;;;;5017727;28;20467;-76
2021/06/06 09:49:27;;;;;;;5.23;4.83;;;35.30;1.00;;;;;;5018251;28;20535;-76
2021/06/06 09:51:57;;;;;;;5.10;4.70;;;36.00;1.00;;;;;;4989256;28;20475;-78
2021/06/06 09:54:30;;;;;;;6.07;5.60;;;36.60;1.00;;;;;;4998802;28;20461;-76
2021/06/06 09:57:00;;;;;;;5.63;5.27;;;36.10;1.00;;;;;;4980390;28;20477;-78
2021/06/06 09:59:29;;;;;;;6.03;5.50;;;34.60;1.00;;;;;;4996868;28;20481;-78
2021/06/06 10:02:01;;;;;;;5.93;5.53;;;33.40;1.00;;;;;;4996218;28;20987;-76
2021/06/06 10:04:30;;;;;;;5.83;5.30;;;32.60;1.00;;;;;;4997656;28;20471;-77
2021/06/06 10:07:08;;;;;;;5.73;5.23;;;32.60;1.00;;;;;;4995129;28;20507;-75
2021/06/06 10:09:34;;;;;;;7.60;6.43;;;33.80;1.00;;;;;;4982696;28;20442;-76
2021/06/06 10:12:08;;;;;;;6.53;5.93;;;35.10;1.00;;;;;;5007163;28;20461;-76
2021/06/06 10:14:42;;;;;;;5.93;5.53;;;34.90;1.00;;;;;;4998566;28;20445;-75
2021/06/06 10:17:11;;;;;;;6.60;6.00;;;33.70;1.00;;;;;;4982774;28;20445;-76
2021/06/06 10:19:41;;;;;;;5.93;5.57;;;32.50;1.00;;;;;;5007450;28;20556;-77
2021/06/06 10:22:13;;;;;;;5.77;5.37;;;31.90;1.00;;;;;;5001661;28;20444;-77
2021/06/06 10:24:44;;;;;;;6.03;5.63;;;31.50;1.00;;;;;;5008367;28;20467;-76
2021/06/06 10:27:18;;;;;;;5.40;5.00;;;31.00;1.00;;;;;;4989438;28;20435;-77
2021/06/06 10:29:48;;;;;;;5.43;5.03;;;30.60;1.00;;;;;;5013651;28;20512;-76
2021/06/06 10:32:21;;;;;;;5.67;5.33;;;30.20;1.00;;;;;;5011465;28;20554;-77
2021/06/06 10:34:53;;;;;;;6.37;5.87;;;29.90;1.00;;;;;;5006279;28;20598;-77
2021/06/06 10:37:20;;;;;;;6.40;5.80;;;29.70;1.00;;;;;;5000052;28;20524;-76
2021/06/06 10:39:54;;;;;;;6.37;5.87;;;29.50;1.00;;;;;;5000178;28;20541;-77
2021/06/06 10:42:27;;;;;;;6.77;6.07;;;29.30;1.00;;;;;;5004295;28;21006;-77
2021/06/06 10:45:01;;;;;;;7.17;6.50;;;29.20;1.00;;;;;;5014231;28;20427;-78
2021/06/06 10:47:35;;;;;;;6.67;6.27;;;29.20;1.00;;;;;;5001458;28;20553;-75
2021/06/06 10:50:13;;;;;;;7.73;6.87;;;29.20;1.00;;;;;;5000185;28;20972;-78
2021/06/06 10:52:40;;;;;;;6.50;6.00;;;29.10;1.00;;;;;;5002255;28;21246;-76
2021/06/06 10:55:21;;;;;;;7.20;6.70;;;29.10;1.00;;;;;;5002398;28;20464;-77
2021/06/06 10:57:49;;;;;;;6.60;6.10;;;29.10;1.00;;;;;;4997670;28;21205;-76
2021/06/06 11:00:30;;;;;;;7.40;6.80;;;29.90;1.00;;;;;;4998414;28;21704;-77
2021/06/06 11:03:00;;;;;;;6.33;5.83;;;32.10;1.00;;;;;;4999754;28;20474;-76
2021/06/06 11:05:43;;;;;;;9.03;8.40;;;33.50;1.00;;;;;;5005223;28;20979;-77
2021/06/06 11:08:33;;;;;;;6.27;5.80;;;33.20;1.00;;;;;;5001615;28;20444;-76
2021/06/06 11:11:21;;;;;;;5.93;5.53;;;32.50;1.00;;;;;;4996130;28;20504;-78
2021/06/06 11:13:52;;;;;;;6.30;5.80;;;33.60;1.00;;;;;;5008109;28;20808;-78
2021/06/06 11:16:33;;;;;;;5.97;5.47;;;35.40;1.00;;;;;;5003758;28;20430;-77
2021/06/06 11:19:04;;;;;;;5.83;5.33;;;37.10;1.00;;;;;;4998174;28;20540;-77
2021/06/06 11:21:38;;;;;;;13.23;12.20;;;38.40;1.00;;;;;;4996754;28;20444;-77
2021/06/06 11:24:07;;;;;;;5.33;4.93;;;39.30;1.00;;;;;;4999595;28;20447;-78
2021/06/06 11:26:42;;;;;;;5.60;5.20;;;38.90;1.00;;;;;;4997038;28;20556;-78
2021/06/06 11:29:14;;;;;;;6.13;5.63;;;39.10;1.00;;;;;;4994480;28;20439;-76
2021/06/06 11:31:58;;;;;;;5.07;4.77;;;39.90;1.00;;;;;;4998551;28;20452;-79
2021/06/06 11:34:27;;;;;;;5.57;5.07;;;40.30;1.00;;;;;;5003577;28;20446;-78
2021/06/06 11:37:03;;;;;;;5.40;5.10;;;40.80;1.00;;;;;;5001493;28;20447;-78
2021/06/06 11:39:34;;;;;;;5.20;4.83;;;41.50;1.00;;;;;;5013287;28;20442;-76
2021/06/06 11:42:02;;;;;;;5.30;5.00;;;41.80;1.00;;;;;;5014802;28;20438;-77
2021/06/06 11:44:38;;;;;;;5.23;4.83;;;41.70;1.00;;;;;;5002284;28;20446;-75
2021/06/06 11:47:08;;;;;;;5.50;5.10;;;41.40;1.00;;;;;;5002981;28;20588;-78
2021/06/06 11:49:45;;;;;;;4.90;4.50;;;41.70;1.00;;;;;;5002922;28;20457;-76
2021/06/06 11:52:23;;;;;;;4.70;4.40;;;41.40;1.00;;;;;;5000740;28;20430;-78
2021/06/06 11:54:52;;;;;;;5.80;5.20;;;41.50;1.00;;;;;;4997189;28;20997;-77
2021/06/06 11:57:24;;;;;;;6.13;5.30;;;41.80;1.00;;;;;;5002006;28;20891;-77
2021/06/06 11:59:56;;;;;;;4.80;4.50;;;41.90;1.00;;;;;;5000890;28;20449;-76
2021/06/06 12:02:25;;;;;;;8.07;5.67;;;42.20;1.00;;;;;;5022293;28;20451;-77
2021/06/06 12:04:52;;;;;;;4.70;4.40;;;42.90;1.00;;;;;;5030464;28;20498;-76
2021/06/06 12:07:22;;;;;;;5.30;4.90;;;42.00;1.00;;;;;;5029732;28;20465;-77
2021/06/06 12:09:50;;;;;;;5.23;4.90;;;41.70;1.00;;;;;;5025207;28;20495;-75
2021/06/06 12:12:22;;;;;;;5.17;4.67;;;41.70;1.00;;;;;;5024054;28;20594;-77
2021/06/06 12:15:08;;;;;;;5.03;4.73;;;41.90;1.00;;;;;;5020580;28;20510;-76
2021/06/06 12:17:37;;;;;;;5.00;4.70;;;42.50;1.00;;;;;;5021089;28;20932;-75
2021/06/06 12:20:07;;;;;;;6.27;5.87;;;42.50;1.00;;;;;;5022917;28;20415;-74
2021/06/06 12:22:36;;;;;;;5.10;4.60;;;42.60;1.00;;;;;;5024325;28;20670;-74
2021/06/06 12:25:18;;;;;;;6.07;5.57;;;42.60;1.00;;;;;;5029164;28;20482;-75
2021/06/06 12:27:47;;;;;;;5.30;4.97;;;42.80;1.00;;;;;;5021393;28;20446;-75
2021/06/06 12:30:21;;;;;;;5.70;5.20;;;42.90;1.00;;;;;;5019465;28;20488;-75
2021/06/06 12:32:52;;;;;;;5.40;5.00;;;43.30;1.00;;;;;;5023061;28;20465;-75
2021/06/06 12:35:22;;;;;;;5.73;4.90;;;43.30;1.00;;;;;;5021669;28;20481;-77
2021/06/06 12:37:52;;;;;;;5.70;5.13;;;42.70;1.00;;;;;;5024664;28;20466;-76
2021/06/06 12:40:21;;;;;;;4.83;4.53;;;42.50;1.00;;;;;;5024274;28;20419;-77
2021/06/06 12:42:49;;;;;;;5.13;4.73;;;42.50;1.00;;;;;;5021442;28;20455;-75
2021/06/06 12:45:19;;;;;;;4.53;4.23;;;41.60;1.00;;;;;;5009156;28;20422;-76
2021/06/06 12:47:47;;;;;;;4.77;4.30;;;41.50;1.00;;;;;;5012421;28;20477;-76
2021/06/06 12:50:23;;;;;;;4.73;4.37;;;42.40;1.00;;;;;;5011161;28;20438;-75
2021/06/06 12:52:52;;;;;;;5.10;4.70;;;42.80;1.00;;;;;;5002327;28;20824;-78
2021/06/06 12:55:24;;;;;;;4.67;4.33;;;43.10;1.00;;;;;;5004975;28;20538;-75
2021/06/06 12:57:52;;;;;;;4.10;3.80;;;43.80;1.00;;;;;;5001452;28;20552;-77